Time;durP1;ratioP1;P1;durP2;ratioP2;P2;SDS_P1;SDS_P2;PMS_P1;PMS_P2;Temp;Humidity;BMP_temperature;BMP_pressure;BME280_temperature;BME280_humidity;BME280_pressure;Samples;Min_cycle;Max_cycle;Signal;HPM_P1;HPM_P2
2023/02/22 00:00:48;;;;;;;3.20;2.25;;;5.10;1.00;;;;;;5013598;28;20898;-77
2023/02/22 00:03:23;;;;;;;3.93;2.30;;;5.10;1.00;;;;;;5013415;28;20410;-76
2023/02/22 00:05:52;;;;;;;3.33;2.10;;;5.00;1.00;;;;;;5012832;28;20377;-76
2023/02/22 00:08:19;;;;;;;2.80;2.38;;;5.20;1.00;;;;;;5013079;28;20899;-76
2023/02/22 00:10:45;;;;;;;3.53;1.95;;;5.00;1.00;;;;;;5013128;28;20400;-76
2023/02/22 00:13:13;;;;;;;3.03;2.20;;;5.00;1.00;;;;;;5013251;28;20384;-76
2023/02/22 00:15:43;;;;;;;4.13;2.20;;;5.00;1.00;;;;;;5012451;28;20409;-76
2023/02/22 00:18:11;;;;;;;2.65;2.20;;;5.20;1.00;;;;;;5012820;28;20389;-77
2023/02/22 00:20:37;;;;;;;2.70;2.20;;;5.10;1.00;;;;;;5013155;28;20416;-76
2023/02/22 00:23:06;;;;;;;4.95;2.08;;;5.00;1.00;;;;;;5013073;28;20466;-76
2023/02/22 00:25:32;;;;;;;2.33;2.00;;;5.10;1.00;;;;;;5011203;28;20380;-76
2023/02/22 00:27:58;;;;;;;3.13;2.30;;;4.80;1.00;;;;;;5012629;28;20957;-76
2023/02/22 00:30:27;;;;;;;2.30;1.77;;;5.00;1.00;;;;;;5011328;28;20396;-76
2023/02/22 00:32:54;;;;;;;2.50;2.00;;;5.00;99.90;;;;;;5012882;28;20435;-77
2023/02/22 00:35:22;;;;;;;2.13;1.92;;;4.90;99.90;;;;;;5012483;28;20902;-76
2023/02/22 00:37:50;;;;;;;2.15;1.70;;;5.00;1.00;;;;;;5012339;28;20830;-77
2023/02/22 00:40:20;;;;;;;1.90;1.70;;;4.90;99.90;;;;;;5009414;28;20401;-76
2023/02/22 00:42:45;;;;;;;2.05;1.85;;;4.80;1.00;;;;;;5019696;28;20431;-76
2023/02/22 00:45:14;;;;;;;2.40;2.00;;;5.00;1.00;;;;;;5012266;28;20895;-76
2023/02/22 00:47:40;;;;;;;1.90;1.80;;;4.90;99.90;;;;;;5006116;28;20402;-76
2023/02/22 00:50:05;;;;;;;2.00;1.70;;;4.80;99.90;;;;;;4992927;28;20644;-76
2023/02/22 00:52:31;;;;;;;1.95;1.75;;;4.80;99.90;;;;;;4992892;28;20501;-76
2023/02/22 00:54:56;;;;;;;2.30;1.90;;;4.70;99.90;;;;;;4992591;28;20444;-76
2023/02/22 00:57:23;;;;;;;2.53;1.52;;;4.80;1.00;;;;;;4997600;28;20519;-76
2023/02/22 00:59:49;;;;;;;2.20;1.88;;;4.80;1.00;;;;;;5012049;28;20463;-76
2023/02/22 01:02:15;;;;;;;1.73;1.63;;;4.70;1.00;;;;;;5010474;28;20482;-76
2023/02/22 01:04:43;;;;;;;2.58;1.60;;;4.60;1.00;;;;;;5005153;28;22321;-76
2023/02/22 01:07:08;;;;;;;2.67;1.70;;;4.50;1.00;;;;;;5003747;28;20879;-76
2023/02/22 01:09:34;;;;;;;1.80;1.70;;;4.40;1.00;;;;;;5011495;28;20435;-76
2023/02/22 01:12:01;;;;;;;1.83;1.60;;;4.40;1.00;;;;;;5011882;28;20462;-76
2023/02/22 01:14:27;;;;;;;2.17;1.98;;;4.20;1.00;;;;;;5011847;28;20408;-76
2023/02/22 01:16:56;;;;;;;1.90;1.70;;;4.20;1.00;;;;;;5010032;28;20442;-76
2023/02/22 01:19:22;;;;;;;2.10;1.90;;;4.40;1.00;;;;;;5000163;28;20407;-76
2023/02/22 01:21:49;;;;;;;1.90;1.55;;;4.40;1.00;;;;;;4991000;28;20413;-76
2023/02/22 01:24:16;;;;;;;1.75;1.50;;;4.40;1.00;;;;;;4992178;28;20407;-76
2023/02/22 01:26:44;;;;;;;1.92;1.48;;;4.40;1.00;;;;;;5002505;28;20771;-76
2023/02/22 01:29:14;;;;;;;1.48;1.38;;;4.50;1.00;;;;;;5011633;28;20886;-76
2023/02/22 01:31:42;;;;;;;1.67;1.40;;;4.30;1.00;;;;;;5011573;28;20397;-76
2023/02/22 01:34:09;;;;;;;2.00;1.80;;;4.40;1.00;;;;;;5010193;28;20408;-76
2023/02/22 01:36:34;;;;;;;2.08;1.50;;;4.60;1.00;;;;;;5011316;28;20886;-76
2023/02/22 01:39:00;;;;;;;2.40;1.77;;;4.60;1.00;;;;;;5010223;28;20393;-76
2023/02/22 01:41:25;;;;;;;2.10;1.70;;;4.60;1.00;;;;;;5011254;28;20768;-76
2023/02/22 01:43:51;;;;;;;2.40;1.60;;;4.50;99.90;;;;;;5011565;28;20483;-76
2023/02/22 01:46:26;;;;;;;2.80;1.63;;;4.70;99.90;;;;;;5010858;28;20400;-76
2023/02/22 01:49:01;;;;;;;2.20;1.65;;;4.70;1.00;;;;;;5010982;28;20874;-76
2023/02/22 01:51:30;;;;;;;2.10;1.48;;;4.60;1.00;;;;;;5011326;28;20384;-76
2023/02/22 01:54:14;;;;;;;1.83;1.50;;;4.60;1.00;;;;;;5011292;28;20507;-76
2023/02/22 01:56:46;;;;;;;2.72;1.60;;;4.70;1.00;;;;;;5010780;28;20433;-76
2023/02/22 01:59:12;;;;;;;1.90;1.70;;;4.40;1.00;;;;;;5011112;28;20400;-76
2023/02/22 02:01:41;;;;;;;2.58;1.30;;;4.70;1.00;;;;;;5010407;28;20388;-76
2023/02/22 02:04:11;;;;;;;1.83;1.45;;;4.80;99.90;;;;;;5009912;28;20388;-76
2023/02/22 02:06:37;;;;;;;2.10;1.90;;;4.90;99.90;;;;;;5010692;28;20421;-76
2023/02/22 02:09:15;;;;;;;1.50;1.40;;;4.70;99.90;;;;;;5010996;28;20479;-76
2023/02/22 02:11:42;;;;;;;1.50;1.35;;;4.50;99.90;;;;;;5010383;28;20849;-76
2023/02/22 02:14:09;;;;;;;2.60;1.60;;;4.90;99.90;;;;;;5011011;28;20408;-76
2023/02/22 02:16:42;;;;;;;2.60;1.75;;;4.80;1.00;;;;;;5010681;28;20439;-76
2023/02/22 02:19:45;;;;;;;1.90;1.40;;;4.90;1.00;;;;;;5010678;28;20772;-76
2023/02/22 02:22:40;;;;;;;1.87;1.50;;;4.80;26.30;;;;;;5009867;28;20914;-76
2023/02/22 02:25:31;;;;;;;2.15;1.95;;;4.80;99.90;;;;;;5010416;28;20400;-76
2023/02/22 02:28:15;;;;;;;2.10;1.60;;;4.80;99.90;;;;;;5010838;28;20926;-76
2023/02/22 02:30:47;;;;;;;2.00;1.73;;;4.80;99.90;;;;;;4990945;28;20811;-76
2023/02/22 02:33:33;;;;;;;1.35;1.25;;;4.60;99.90;;;;;;4991163;28;20401;-76
2023/02/22 02:36:16;;;;;;;2.40;1.80;;;4.50;1.00;;;;;;5008362;28;20396;-76
2023/02/22 02:38:53;;;;;;;3.08;1.70;;;4.40;1.00;;;;;;5010439;28;20369;-76
2023/02/22 02:41:46;;;;;;;2.13;1.40;;;3.80;1.00;;;;;;5010611;28;20396;-76
2023/02/22 02:44:25;;;;;;;2.35;1.80;;;4.00;1.00;;;;;;5009319;28;20424;-76
2023/02/22 02:47:00;;;;;;;2.38;1.60;;;4.10;1.00;;;;;;5010137;28;20392;-76
2023/02/22 02:49:35;;;;;;;2.13;1.50;;;3.90;1.00;;;;;;5010045;28;20420;-76
2023/02/22 02:52:04;;;;;;;1.50;1.40;;;3.80;1.00;;;;;;5010532;28;20381;-76
2023/02/22 02:54:30;;;;;;;1.60;1.40;;;3.90;1.00;;;;;;5010625;28;20953;-76
2023/02/22 02:56:57;;;;;;;2.20;2.00;;;3.80;1.00;;;;;;5010027;28;20397;-76
2023/02/22 02:59:28;;;;;;;1.90;1.40;;;3.80;1.00;;;;;;5010102;28;20539;-76
2023/02/22 03:02:17;;;;;;;1.75;1.50;;;3.50;38.60;;;;;;5025483;28;20400;-77
2023/02/22 03:05:16;;;;;;;1.60;1.50;;;3.50;62.60;;;;;;5009209;28;20396;-76
2023/02/22 03:08:01;;;;;;;2.10;1.40;;;3.40;57.00;;;;;;4995604;28;20409;-76
2023/02/22 03:10:36;;;;;;;1.83;1.40;;;3.40;90.60;;;;;;5010485;28;20448;-76
2023/02/22 03:13:35;;;;;;;3.40;1.60;;;3.30;59.20;;;;;;5010604;28;20408;-76
2023/02/22 03:16:20;;;;;;;2.28;1.48;;;3.20;99.90;;;;;;5009937;28;20381;-76
2023/02/22 03:19:11;;;;;;;2.15;1.67;;;3.30;99.90;;;;;;5009903;28;20498;-76
2023/02/22 03:21:49;;;;;;;1.73;1.60;;;3.20;99.90;;;;;;5010188;28;20747;-76
2023/02/22 03:24:25;;;;;;;2.25;1.60;;;3.10;89.60;;;;;;5009056;28;20555;-76
2023/02/22 03:26:59;;;;;;;2.03;1.60;;;3.20;63.70;;;;;;5009474;28;20490;-76
2023/02/22 03:29:27;;;;;;;1.67;1.40;;;3.50;41.00;;;;;;5008515;28;20907;-76
2023/02/22 03:32:00;;;;;;;2.60;1.63;;;3.30;8.10;;;;;;5009850;28;20483;-76
2023/02/22 03:34:51;;;;;;;1.42;1.33;;;3.40;22.90;;;;;;5014002;28;20982;-76
2023/02/22 03:37:23;;;;;;;1.60;1.40;;;3.10;22.20;;;;;;5013425;28;20478;-76
2023/02/22 03:39:53;;;;;;;2.22;1.60;;;3.50;1.00;;;;;;5013584;28;20420;-76
2023/02/22 03:42:27;;;;;;;1.70;1.52;;;3.70;4.30;;;;;;5013815;28;20814;-76
2023/02/22 03:44:56;;;;;;;2.80;1.50;;;3.60;1.00;;;;;;5013506;28;20452;-76
2023/02/22 03:47:32;;;;;;;1.50;1.40;;;3.60;1.00;;;;;;5011892;28;20397;-76
2023/02/22 03:50:09;;;;;;;1.73;1.60;;;3.70;1.00;;;;;;5013698;28;20981;-78
2023/02/22 03:52:36;;;;;;;2.30;1.17;;;3.70;1.00;;;;;;5013577;28;20399;-76
2023/02/22 03:55:03;;;;;;;1.97;1.50;;;3.80;1.00;;;;;;5013295;28;20445;-76
2023/02/22 03:57:34;;;;;;;1.70;1.60;;;3.80;1.00;;;;;;5013153;28;20492;-76
2023/02/22 04:00:00;;;;;;;2.72;1.50;;;3.80;1.00;;;;;;5013460;28;20442;-76
2023/02/22 04:02:26;;;;;;;1.90;1.60;;;3.70;1.00;;;;;;5008578;28;20768;-76
2023/02/22 04:04:51;;;;;;;2.20;1.60;;;3.50;1.00;;;;;;4992489;28;20525;-76
2023/02/22 04:07:18;;;;;;;2.87;1.97;;;3.70;1.00;;;;;;5006386;28;20904;-76
2023/02/22 04:09:44;;;;;;;2.30;1.85;;;3.60;1.00;;;;;;5013202;28;20388;-76
2023/02/22 04:12:09;;;;;;;2.60;1.80;;;3.30;6.20;;;;;;5012944;28;20399;-76
2023/02/22 04:14:35;;;;;;;1.70;1.60;;;3.50;23.70;;;;;;5012778;28;20511;-76
2023/02/22 04:17:00;;;;;;;1.50;1.40;;;3.90;38.20;;;;;;5011442;28;20531;-76
2023/02/22 04:19:26;;;;;;;1.60;1.50;;;3.20;85.60;;;;;;5011673;28;20409;-76
2023/02/22 04:21:51;;;;;;;1.97;1.30;;;3.30;99.90;;;;;;5012781;28;20490;-76
2023/02/22 04:24:17;;;;;;;2.37;1.60;;;3.20;99.90;;;;;;5013336;28;20424;-76
2023/02/22 04:26:42;;;;;;;3.20;1.70;;;3.30;92.50;;;;;;5012719;28;20392;-76
2023/02/22 04:29:08;;;;;;;1.50;1.40;;;3.40;54.70;;;;;;5012829;28;20389;-76
2023/02/22 04:31:34;;;;;;;1.73;1.50;;;3.50;31.00;;;;;;5011354;28;20442;-76
2023/02/22 04:34:01;;;;;;;2.55;2.00;;;3.20;50.50;;;;;;5013248;28;20412;-76
2023/02/22 04:36:27;;;;;;;2.78;1.63;;;3.10;35.00;;;;;;5012608;28;20396;-76
2023/02/22 04:38:53;;;;;;;2.03;1.80;;;3.60;22.10;;;;;;5013058;28;20392;-76
2023/02/22 04:41:18;;;;;;;3.33;1.55;;;3.70;14.80;;;;;;5013005;28;20886;-76
2023/02/22 04:43:44;;;;;;;3.07;1.60;;;3.40;7.60;;;;;;5012492;28;20400;-76
2023/02/22 04:46:11;;;;;;;2.00;1.80;;;3.40;7.40;;;;;;5012112;28;20409;-76
2023/02/22 04:48:36;;;;;;;2.50;1.70;;;3.40;26.80;;;;;;5012813;28;20418;-76
2023/02/22 04:51:02;;;;;;;3.10;2.30;;;3.50;33.00;;;;;;5012863;28;20397;-76
2023/02/22 04:53:27;;;;;;;2.80;2.10;;;3.70;18.30;;;;;;5007622;28;20402;-77
2023/02/22 04:55:53;;;;;;;2.78;1.90;;;3.50;18.30;;;;;;5002583;28;20544;-76
2023/02/22 04:58:19;;;;;;;2.75;1.90;;;3.70;12.00;;;;;;5012503;28;20393;-76
2023/02/22 05:00:44;;;;;;;2.50;1.95;;;3.40;1.00;;;;;;5012703;28;20404;-76
2023/02/22 05:03:10;;;;;;;3.03;2.00;;;3.60;7.40;;;;;;5012279;28;20883;-77
2023/02/22 05:05:35;;;;;;;4.20;2.00;;;3.30;1.00;;;;;;5010804;28;20476;-77
2023/02/22 05:08:01;;;;;;;2.43;1.87;;;3.60;1.00;;;;;;5012131;28;20752;-76
2023/02/22 05:10:26;;;;;;;3.70;2.20;;;3.50;1.00;;;;;;5012279;28;20388;-77
2023/02/22 05:12:52;;;;;;;2.40;2.20;;;3.60;30.00;;;;;;5011992;28;20408;-77
2023/02/22 05:15:19;;;;;;;3.27;1.80;;;3.10;36.60;;;;;;5010570;28;20405;-77
2023/02/22 05:17:48;;;;;;;1.98;1.75;;;3.60;16.00;;;;;;5011761;28;20803;-79
2023/02/22 05:20:27;;;;;;;2.10;1.80;;;3.50;1.00;;;;;;5035441;23;20434;-75
2023/02/22 05:22:54;;;;;;;2.17;1.60;;;3.60;1.00;;;;;;5012482;28;20393;-75
2023/02/22 05:25:20;;;;;;;2.70;2.20;;;3.70;1.00;;;;;;5005715;28;20396;-76
2023/02/22 05:27:53;;;;;;;3.10;1.97;;;3.60;1.00;;;;;;5013454;28;20393;-75
2023/02/22 05:30:28;;;;;;;3.53;1.92;;;3.50;1.00;;;;;;4986701;28;20426;-75
2023/02/22 05:32:54;;;;;;;2.50;1.90;;;3.50;7.40;;;;;;4986637;28;20390;-75
2023/02/22 05:35:21;;;;;;;1.80;1.70;;;3.50;28.30;;;;;;4990863;28;20485;-76
2023/02/22 05:37:47;;;;;;;1.87;1.70;;;3.60;3.80;;;;;;4989644;28;20387;-75
2023/02/22 05:40:16;;;;;;;2.30;1.70;;;3.70;4.30;;;;;;4994388;28;20777;-75
2023/02/22 05:42:41;;;;;;;3.33;1.83;;;3.80;2.30;;;;;;4994036;28;20398;-76
2023/02/22 05:45:08;;;;;;;3.13;2.00;;;3.60;1.00;;;;;;4992890;28;20413;-76
2023/02/22 05:47:33;;;;;;;3.20;1.95;;;3.70;1.00;;;;;;4992855;28;20398;-76
2023/02/22 05:50:00;;;;;;;2.33;2.08;;;3.70;1.00;;;;;;4993904;28;20403;-76
2023/02/22 05:52:26;;;;;;;5.43;3.10;;;3.60;1.00;;;;;;5005759;28;20855;-76
2023/02/22 05:54:52;;;;;;;4.15;3.70;;;3.80;1.00;;;;;;4990606;28;20444;-76
2023/02/22 05:57:17;;;;;;;3.40;2.73;;;3.80;1.00;;;;;;4993740;28;20449;-75
2023/02/22 05:59:43;;;;;;;4.53;3.40;;;4.10;1.00;;;;;;4992254;28;20443;-76
2023/02/22 06:02:08;;;;;;;4.40;3.60;;;4.10;1.00;;;;;;4994105;28;20382;-76
2023/02/22 06:04:34;;;;;;;4.20;3.80;;;4.10;1.00;;;;;;4985340;28;20394;-74
2023/02/22 06:06:59;;;;;;;5.50;4.00;;;4.00;1.00;;;;;;4983531;28;20495;-74
2023/02/22 06:09:25;;;;;;;4.30;3.33;;;3.90;1.00;;;;;;4993562;28;20393;-74
2023/02/22 06:11:51;;;;;;;3.97;3.00;;;3.90;1.00;;;;;;4993865;28;20401;-73
2023/02/22 06:14:16;;;;;;;4.30;3.10;;;4.00;1.00;;;;;;4993357;28;20535;-75
2023/02/22 06:16:42;;;;;;;3.25;2.70;;;3.60;1.00;;;;;;4993099;28;20394;-76
2023/02/22 06:19:07;;;;;;;3.77;2.60;;;4.00;1.00;;;;;;4993378;28;20402;-74
2023/02/22 06:21:33;;;;;;;3.00;2.70;;;4.10;1.00;;;;;;4993879;28;20401;-76
2023/02/22 06:24:00;;;;;;;4.47;3.10;;;4.10;1.00;;;;;;4984818;28;20922;-74
2023/02/22 06:26:26;;;;;;;4.90;2.67;;;4.00;1.00;;;;;;4993269;28;20441;-74
2023/02/22 06:28:51;;;;;;;3.43;2.60;;;4.00;1.00;;;;;;4992883;28;20397;-74
2023/02/22 06:31:17;;;;;;;4.90;2.80;;;3.90;1.00;;;;;;5007575;28;20409;-74
2023/02/22 06:33:42;;;;;;;3.43;2.70;;;3.90;1.00;;;;;;5004210;28;20386;-75
2023/02/22 06:36:08;;;;;;;2.60;2.20;;;3.70;1.00;;;;;;5001404;28;20420;-74
2023/02/22 06:38:33;;;;;;;3.00;2.60;;;4.00;1.00;;;;;;4996962;28;20600;-74
2023/02/22 06:40:59;;;;;;;2.87;2.57;;;4.00;1.00;;;;;;4994412;28;20828;-74
2023/02/22 06:43:25;;;;;;;3.30;3.00;;;4.30;1.00;;;;;;4977332;28;20427;-75
2023/02/22 06:45:51;;;;;;;3.00;2.70;;;4.10;1.00;;;;;;4986077;28;20779;-74
2023/02/22 06:48:17;;;;;;;3.38;2.67;;;4.00;1.00;;;;;;5001429;28;20395;-75
2023/02/22 06:50:42;;;;;;;4.35;2.80;;;4.00;1.00;;;;;;4993142;28;20436;-75
2023/02/22 06:53:08;;;;;;;3.30;2.60;;;4.10;1.00;;;;;;4984697;28;20403;-75
2023/02/22 06:55:34;;;;;;;4.00;2.90;;;4.80;1.00;;;;;;4991772;28;20406;-76
2023/02/22 06:58:01;;;;;;;3.70;2.80;;;4.20;1.00;;;;;;4992934;28;20777;-76
2023/02/22 07:00:28;;;;;;;3.58;2.67;;;4.20;1.00;;;;;;4991510;28;20394;-74
2023/02/22 07:02:54;;;;;;;5.75;2.65;;;4.20;1.00;;;;;;4992757;28;20397;-74
2023/02/22 07:05:21;;;;;;;3.13;2.50;;;4.20;1.00;;;;;;4988000;28;20415;-75
2023/02/22 07:07:48;;;;;;;3.00;2.40;;;4.00;1.00;;;;;;5007561;28;20508;-75
2023/02/22 07:10:19;;;;;;;4.53;3.10;;;4.20;1.00;;;;;;4996936;28;20410;-75
2023/02/22 07:12:45;;;;;;;3.63;2.80;;;4.20;1.00;;;;;;4996329;28;20386;-75
2023/02/22 07:15:10;;;;;;;3.10;2.80;;;3.90;1.00;;;;;;4995889;28;20468;-75
2023/02/22 07:17:36;;;;;;;5.70;3.20;;;4.40;1.00;;;;;;4995865;28;20456;-75
2023/02/22 07:20:02;;;;;;;3.20;2.70;;;4.30;1.00;;;;;;4995961;28;20438;-75
2023/02/22 07:22:27;;;;;;;5.03;3.10;;;4.70;1.00;;;;;;4994882;28;20906;-75
2023/02/22 07:24:54;;;;;;;3.40;3.00;;;4.70;1.00;;;;;;4988349;28;20435;-75
2023/02/22 07:27:19;;;;;;;3.92;3.53;;;4.70;1.00;;;;;;4995507;28;20397;-75
2023/02/22 07:29:45;;;;;;;4.30;3.38;;;4.60;1.00;;;;;;4995990;28;20390;-75
2023/02/22 07:32:11;;;;;;;4.65;3.50;;;4.60;1.00;;;;;;5011119;28;20395;-74
2023/02/22 07:34:36;;;;;;;4.60;3.50;;;4.30;1.00;;;;;;4995427;28;20413;-75
2023/02/22 07:37:02;;;;;;;5.00;3.53;;;4.40;1.00;;;;;;4995779;28;20398;-75
2023/02/22 07:39:27;;;;;;;5.20;3.70;;;4.40;1.00;;;;;;4995527;28;20401;-75
2023/02/22 07:41:53;;;;;;;5.47;3.70;;;4.30;1.00;;;;;;4996704;28;20448;-75
2023/02/22 07:44:18;;;;;;;5.07;3.70;;;4.40;1.00;;;;;;4996642;28;20436;-75
2023/02/22 07:46:49;;;;;;;6.30;3.27;;;4.80;1.00;;;;;;4996626;28;20522;-75
2023/02/22 07:49:15;;;;;;;4.40;3.30;;;5.10;1.00;;;;;;4987737;28;20828;-75
2023/02/22 07:51:40;;;;;;;5.05;3.35;;;5.10;1.00;;;;;;4996728;28;20429;-75
2023/02/22 07:54:06;;;;;;;4.38;3.58;;;5.40;99.90;;;;;;4996728;28;20405;-75
2023/02/22 07:56:31;;;;;;;3.67;3.20;;;5.30;99.90;;;;;;4996509;28;20391;-75
2023/02/22 07:58:57;;;;;;;4.20;3.47;;;5.70;99.90;;;;;;4996392;28;20404;-75
2023/02/22 08:01:23;;;;;;;4.27;3.60;;;5.80;1.00;;;;;;5008689;28;20415;-75
2023/02/22 08:03:49;;;;;;;5.05;3.72;;;6.50;1.00;;;;;;4976169;28;20431;-75
2023/02/22 08:06:15;;;;;;;3.63;3.33;;;6.00;99.90;;;;;;4981191;28;20789;-75
2023/02/22 08:08:41;;;;;;;5.25;3.63;;;6.20;1.00;;;;;;4995834;28;20394;-75
2023/02/22 08:11:07;;;;;;;4.38;3.53;;;6.30;1.00;;;;;;4993917;28;20889;-74
2023/02/22 08:13:33;;;;;;;4.40;3.70;;;6.20;99.90;;;;;;4995371;28;20396;-76
2023/02/22 08:15:59;;;;;;;6.93;3.75;;;6.20;99.90;;;;;;4995026;28;20489;-75
2023/02/22 08:18:25;;;;;;;4.47;3.60;;;6.50;1.00;;;;;;4994693;28;20461;-76
2023/02/22 08:20:52;;;;;;;5.95;3.65;;;6.50;99.90;;;;;;4995182;28;20422;-76
2023/02/22 08:23:19;;;;;;;4.43;3.50;;;6.50;99.90;;;;;;4995601;28;20481;-77
2023/02/22 08:25:44;;;;;;;4.80;3.60;;;6.70;99.90;;;;;;4995253;28;20899;-74
2023/02/22 08:28:13;;;;;;;10.70;4.55;;;6.90;99.90;;;;;;4995278;28;20403;-75
2023/02/22 08:30:42;;;;;;;4.78;3.78;;;6.90;1.00;;;;;;4994139;28;20477;-75
2023/02/22 08:33:09;;;;;;;5.70;4.40;;;6.70;1.00;;;;;;4995523;28;20452;-74
2023/02/22 08:35:35;;;;;;;4.57;3.85;;;6.90;99.90;;;;;;4993628;28;20414;-74
2023/02/22 08:38:04;;;;;;;4.50;4.10;;;7.00;99.90;;;;;;4994538;28;20482;-74
2023/02/22 08:40:33;;;;;;;5.13;3.90;;;7.00;99.90;;;;;;4996003;28;20477;-76
2023/02/22 08:43:00;;;;;;;4.65;3.50;;;7.10;99.90;;;;;;4996478;28;20409;-75
2023/02/22 08:45:26;;;;;;;7.10;3.90;;;7.20;44.30;;;;;;4995893;28;20386;-77
2023/02/22 08:47:51;;;;;;;4.10;3.40;;;7.60;1.00;;;;;;4995585;28;20915;-74
2023/02/22 08:50:26;;;;;;;4.47;3.53;;;7.60;1.00;;;;;;4995255;28;20904;-76
2023/02/22 08:52:53;;;;;;;4.82;3.72;;;7.60;26.50;;;;;;4996154;28;20394;-76
2023/02/22 08:55:23;;;;;;;6.25;3.55;;;7.80;1.00;;;;;;4996064;28;20418;-74
2023/02/22 08:57:49;;;;;;;6.50;4.38;;;7.90;1.00;;;;;;4995288;28;20804;-75
2023/02/22 09:00:16;;;;;;;4.50;3.60;;;9.90;1.00;;;;;;4994750;28;20453;-74
2023/02/22 09:02:42;;;;;;;7.00;3.58;;;8.30;1.00;;;;;;4995017;28;20391;-75
2023/02/22 09:05:08;;;;;;;3.87;3.10;;;8.10;99.90;;;;;;4994984;28;20475;-75
2023/02/22 09:07:33;;;;;;;3.80;3.00;;;8.20;99.90;;;;;;4994350;28;20812;-74
2023/02/22 09:09:59;;;;;;;4.57;3.00;;;8.70;1.00;;;;;;4993559;28;20918;-74
2023/02/22 09:12:24;;;;;;;4.13;3.37;;;8.90;99.90;;;;;;4994708;28;20398;-74
2023/02/22 09:14:50;;;;;;;3.83;3.42;;;8.90;99.90;;;;;;4994568;28;20471;-74
2023/02/22 09:17:16;;;;;;;5.13;3.10;;;9.10;99.90;;;;;;5006033;28;20435;-77
2023/02/22 09:19:41;;;;;;;3.83;2.63;;;9.10;99.90;;;;;;4974880;28;20396;-75
2023/02/22 09:22:07;;;;;;;4.70;3.73;;;9.30;99.90;;;;;;4975101;28;20488;-75
2023/02/22 09:24:33;;;;;;;5.00;3.30;;;9.50;99.90;;;;;;4975038;28;20391;-75
2023/02/22 09:26:59;;;;;;;3.73;3.37;;;9.50;99.90;;;;;;4989338;28;20406;-75
2023/02/22 09:29:26;;;;;;;5.10;3.83;;;9.10;99.90;;;;;;4993131;28;20386;-75
2023/02/22 09:31:53;;;;;;;4.15;3.72;;;9.80;99.90;;;;;;4994436;28;20472;-76
2023/02/22 09:34:21;;;;;;;5.28;3.88;;;10.10;99.90;;;;;;4994423;28;20410;-75
2023/02/22 09:36:48;;;;;;;4.07;3.42;;;10.20;99.90;;;;;;4981940;28;20980;-76
2023/02/22 09:39:15;;;;;;;7.30;4.10;;;10.40;99.90;;;;;;4986109;28;20489;-75
2023/02/22 09:41:49;;;;;;;7.20;4.15;;;10.40;99.90;;;;;;4994348;28;20449;-75
2023/02/22 09:44:29;;;;;;;8.65;6.20;;;10.70;99.90;;;;;;4992998;28;20939;-75
2023/02/22 09:46:57;;;;;;;12.48;7.70;;;11.20;99.90;;;;;;4993935;28;20433;-76
2023/02/22 09:49:30;;;;;;;11.20;8.63;;;11.50;99.90;;;;;;4980967;28;20439;-75
2023/02/22 09:52:38;;;;;;;13.23;10.75;;;11.20;1.00;;;;;;4974438;28;20431;-74
2023/02/22 09:55:36;;;;;;;15.05;12.65;;;12.20;1.00;;;;;;4945093;28;20423;-74
2023/02/22 09:58:11;;;;;;;15.43;12.40;;;12.50;99.90;;;;;;4974200;28;20395;-74
2023/02/22 10:00:39;;;;;;;16.15;12.00;;;12.60;1.00;;;;;;4982806;28;20464;-74
2023/02/22 10:03:35;;;;;;;14.75;12.23;;;12.80;99.90;;;;;;4991985;28;20398;-74
2023/02/22 10:06:10;;;;;;;15.60;11.90;;;12.90;1.00;;;;;;4993259;28;20414;-75
2023/02/22 10:08:37;;;;;;;16.27;12.32;;;13.00;18.80;;;;;;4993156;28;20401;-75
2023/02/22 10:11:09;;;;;;;14.90;11.75;;;12.90;5.20;;;;;;4993913;28;20414;-75
2023/02/22 10:13:38;;;;;;;13.50;11.60;;;13.00;73.90;;;;;;4993047;28;20378;-75
2023/02/22 10:16:28;;;;;;;15.00;11.52;;;14.00;99.90;;;;;;4992708;28;20406;-74
2023/02/22 10:19:07;;;;;;;16.90;12.55;;;13.00;1.00;;;;;;4992367;28;20399;-75
2023/02/22 10:21:58;;;;;;;16.17;12.27;;;12.60;1.00;;;;;;5004560;28;20427;-76
2023/02/22 10:24:37;;;;;;;15.57;12.00;;;13.00;1.00;;;;;;4988797;28;20550;-74
2023/02/22 10:27:04;;;;;;;17.08;12.00;;;12.90;1.00;;;;;;4973048;28;20388;-74
2023/02/22 10:29:41;;;;;;;15.38;11.68;;;12.80;1.00;;;;;;4973679;28;20403;-76
2023/02/22 10:32:15;;;;;;;16.00;12.20;;;12.70;1.00;;;;;;4989322;28;20406;-75
2023/02/22 10:34:50;;;;;;;15.55;11.85;;;13.00;1.00;;;;;;4980050;28;20412;-75
2023/02/22 10:37:26;;;;;;;15.43;12.02;;;12.90;1.00;;;;;;4972733;28;20400;-75
2023/02/22 10:39:58;;;;;;;14.60;11.85;;;13.00;99.90;;;;;;4974980;28;20416;-76
2023/02/22 10:42:26;;;;;;;17.60;12.82;;;13.10;99.90;;;;;;4974631;28;20396;-75
2023/02/22 10:44:52;;;;;;;15.70;12.77;;;13.30;99.90;;;;;;4987468;28;20441;-74
2023/02/22 10:47:19;;;;;;;14.60;11.90;;;13.20;99.90;;;;;;4980480;28;20404;-75
2023/02/22 10:49:52;;;;;;;17.60;13.65;;;13.10;99.90;;;;;;4973450;28;20388;-74
2023/02/22 10:52:23;;;;;;;17.00;12.63;;;13.20;99.90;;;;;;4973297;28;20423;-75
2023/02/22 10:54:50;;;;;;;14.57;12.87;;;13.30;99.90;;;;;;4973152;28;20831;-75
2023/02/22 10:57:30;;;;;;;14.13;12.63;;;13.50;99.90;;;;;;4985411;28;20769;-75
2023/02/22 10:59:56;;;;;;;15.88;13.05;;;13.60;1.00;;;;;;4987527;28;20400;-76
2023/02/22 11:02:30;;;;;;;14.57;12.70;;;13.80;1.00;;;;;;4988444;28;20455;-75
2023/02/22 11:04:58;;;;;;;15.00;12.45;;;15.90;1.00;;;;;;4973519;28;20407;-75
2023/02/22 11:07:28;;;;;;;14.65;12.70;;;13.80;1.00;;;;;;4985803;28;20452;-74
2023/02/22 11:09:56;;;;;;;15.48;12.88;;;13.90;99.90;;;;;;4992328;28;20402;-74
2023/02/22 11:12:32;;;;;;;16.55;12.40;;;14.00;99.90;;;;;;4991753;28;20433;-74
2023/02/22 11:15:26;;;;;;;16.45;12.40;;;14.30;99.90;;;;;;4991983;28;20410;-74
2023/02/22 11:17:56;;;;;;;14.93;11.40;;;14.50;99.90;;;;;;4992554;28;20382;-74
2023/02/22 11:20:24;;;;;;;14.25;11.65;;;14.50;99.90;;;;;;5023833;23;20516;-77
2023/02/22 11:22:54;;;;;;;14.57;11.23;;;14.30;99.90;;;;;;5002259;28;20479;-78
2023/02/22 11:25:25;;;;;;;13.20;11.80;;;14.60;99.90;;;;;;5007526;28;20950;-77
2023/02/22 11:27:52;;;;;;;12.60;10.50;;;14.40;99.90;;;;;;5006471;28;20472;-77
2023/02/22 11:30:31;;;;;;;15.35;12.43;;;14.40;99.90;;;;;;5010603;28;20396;-78
2023/02/22 11:32:59;;;;;;;13.60;12.00;;;14.20;99.90;;;;;;5010354;28;20384;-77
2023/02/22 11:35:27;;;;;;;15.05;10.85;;;14.40;99.90;;;;;;4990785;28;20398;-77
2023/02/22 11:38:08;;;;;;;15.25;11.63;;;14.60;19.70;;;;;;5006074;28;20912;-77
2023/02/22 11:40:34;;;;;;;13.55;11.45;;;14.60;27.00;;;;;;5005647;28;20396;-76
2023/02/22 11:43:17;;;;;;;13.30;11.00;;;14.60;99.90;;;;;;5010269;28;20400;-77
2023/02/22 11:45:59;;;;;;;13.18;11.73;;;14.70;8.50;;;;;;4995815;28;20382;-77
2023/02/22 11:48:27;;;;;;;13.43;10.52;;;14.90;1.00;;;;;;4990997;28;20379;-77
2023/02/22 11:51:05;;;;;;;13.50;11.45;;;15.20;1.00;;;;;;5009201;28;21045;-77
2023/02/22 11:53:56;;;;;;;12.38;11.07;;;14.50;1.00;;;;;;5011459;28;20396;-77
2023/02/22 11:56:32;;;;;;;12.27;10.80;;;14.50;1.00;;;;;;5013440;28;20492;-77
2023/02/22 11:59:16;;;;;;;14.18;11.18;;;14.80;1.00;;;;;;5013722;28;20385;-77
2023/02/22 12:02:02;;;;;;;12.00;10.80;;;14.90;1.00;;;;;;5013994;28;20412;-77
2023/02/22 12:04:55;;;;;;;12.80;10.73;;;15.10;1.00;;;;;;5013846;28;20416;-77
2023/02/22 12:07:44;;;;;;;12.50;11.20;;;14.90;1.00;;;;;;5013376;28;20846;-77
2023/02/22 12:10:17;;;;;;;12.80;10.27;;;14.50;1.00;;;;;;5008698;28;20759;-77
2023/02/22 12:13:03;;;;;;;12.45;10.73;;;14.80;1.00;;;;;;5007310;28;20884;-77
2023/02/22 12:15:35;;;;;;;12.30;11.00;;;14.80;1.00;;;;;;5004445;28;20420;-77
2023/02/22 12:18:18;;;;;;;16.38;11.85;;;14.40;1.00;;;;;;5013533;28;20443;-77
2023/02/22 12:21:07;;;;;;;12.88;11.52;;;14.30;1.00;;;;;;5014525;28;20401;-77
2023/02/22 12:24:02;;;;;;;15.30;12.52;;;14.10;39.50;;;;;;5013474;28;20391;-76
2023/02/22 12:26:36;;;;;;;13.38;11.80;;;14.20;10.30;;;;;;5012660;28;20389;-77
2023/02/22 12:29:11;;;;;;;16.70;11.73;;;14.10;83.20;;;;;;5013606;28;20388;-77
2023/02/22 12:31:44;;;;;;;14.23;11.88;;;14.70;27.40;;;;;;5013530;28;20464;-77
2023/02/22 12:34:31;;;;;;;14.32;11.85;;;14.10;65.00;;;;;;5008540;28;20391;-77
2023/02/22 12:37:15;;;;;;;12.95;11.60;;;14.10;99.90;;;;;;4993323;28;20741;-77
2023/02/22 12:40:22;;;;;;;14.77;12.07;;;13.90;99.90;;;;;;5002380;28;20392;-77
2023/02/22 12:43:15;;;;;;;13.57;11.48;;;14.00;99.90;;;;;;5012670;28;20380;-77
2023/02/22 12:46:21;;;;;;;14.35;11.52;;;14.00;99.90;;;;;;5007514;28;20396;-77
2023/02/22 12:49:32;;;;;;;14.18;11.77;;;13.70;99.90;;;;;;5010120;28;20905;-77
2023/02/22 12:52:04;;;;;;;13.07;11.40;;;13.70;99.90;;;;;;5012412;28;20404;-77
2023/02/22 12:54:38;;;;;;;15.65;11.38;;;13.80;99.90;;;;;;4997861;28;20436;-76
2023/02/22 12:57:37;;;;;;;16.65;12.10;;;13.90;99.90;;;;;;5010395;28;20897;-77
2023/02/22 13:00:19;;;;;;;15.90;12.10;;;14.10;99.90;;;;;;5003739;28;20762;-76
2023/02/22 13:02:54;;;;;;;13.18;11.02;;;13.80;99.90;;;;;;5004227;28;20388;-76
2023/02/22 13:05:20;;;;;;;13.00;11.60;;;14.10;99.90;;;;;;5007689;28;20398;-77
2023/02/22 13:08:16;;;;;;;12.80;10.88;;;13.90;99.90;;;;;;5007627;28;20397;-76
2023/02/22 13:11:09;;;;;;;13.80;12.40;;;13.90;99.90;;;;;;5012540;28;20392;-76
2023/02/22 13:13:42;;;;;;;13.52;12.00;;;14.10;99.90;;;;;;5010943;28;20479;-76
2023/02/22 13:16:24;;;;;;;12.15;10.95;;;13.80;99.90;;;;;;5011793;28;20889;-76